« Back
NWS Peachtree City, Ga » Text Product » AHN Terminal Aerodrome Forecast


Printer-friendly Version
Current Version              Previous Versions:   1  2  3  4  5  6  7  8  9  

Terminal Aerodrome Forecast

459
FTUS42 KFFC 310742 AAA
TAFAHN
TAF AMD
KAHN 310742Z 3108/0106 07003KT P6SM SCT060
      TEMPO 3110/3113 4SM BR
     FM311400 05007KT P6SM SCT035 SCT120
     FM311600 06008KT P6SM SCT050
     FM010000 08004KT P6SM SCT120 SCT250=



USA.gov is the U.S. government's official web portal to all federal, state and local government web resources and services.